createdAt,value
2019-03-21T00:00:00.984Z,1021.91
2019-03-21T00:01:00.995Z,1021.94
2019-03-21T00:02:00.960Z,1021.92
2019-03-21T00:03:00.946Z,1021.92
2019-03-21T00:04:00.940Z,1021.92
2019-03-21T00:05:00.924Z,1021.87
2019-03-21T00:06:00.986Z,1021.88
2019-03-21T00:07:00.900Z,1021.88
2019-03-21T00:08:00.888Z,1021.87
2019-03-21T00:09:00.879Z,1021.92
2019-03-21T00:10:00.871Z,1021.86
2019-03-21T00:11:00.882Z,1021.90
2019-03-21T00:12:00.857Z,1021.94
2019-03-21T00:13:00.832Z,1021.92
2019-03-21T00:14:06.950Z,1021.96
2019-03-21T00:15:01.808Z,1021.96
2019-03-21T00:16:00.794Z,1021.96
2019-03-21T00:17:00.811Z,1021.98
2019-03-21T00:18:00.772Z,1021.97
2019-03-21T00:19:00.760Z,1021.93
2019-03-21T00:20:00.746Z,1021.96
2019-03-21T00:21:00.735Z,1021.94
2019-03-21T00:22:00.747Z,1021.95
2019-03-21T00:23:00.713Z,1021.92
2019-03-21T00:24:00.710Z,1021.99
2019-03-21T00:25:00.689Z,1021.97
2019-03-21T00:26:00.682Z,1022.11
2019-03-21T00:27:00.688Z,1022.05
2019-03-21T00:28:00.657Z,1022.09
2019-03-21T00:29:00.646Z,1022.11
2019-03-21T00:30:00.652Z,1021.98
2019-03-21T00:31:00.618Z,1022.05
2019-03-21T00:32:00.609Z,1022.14
2019-03-21T00:33:00.614Z,1022.05
2019-03-21T00:34:00.588Z,1022.04
2019-03-21T00:35:00.573Z,1022.05
2019-03-21T00:36:00.561Z,1022.09
2019-03-21T00:37:00.548Z,1022.08
2019-03-21T00:38:00.558Z,1022.12
2019-03-21T00:39:00.524Z,1022.09
2019-03-21T00:40:00.513Z,1022.08
2019-03-21T00:41:00.497Z,1022.05
2019-03-21T00:42:00.487Z,1022.06
2019-03-21T00:43:00.500Z,1022.05
2019-03-21T00:44:00.463Z,1022.07
2019-03-21T00:45:00.454Z,1022.06
2019-03-21T00:46:00.442Z,1022.08
2019-03-21T00:47:00.428Z,1022.08
2019-03-21T00:48:00.417Z,1022.05
2019-03-21T00:49:00.426Z,1022.00
2019-03-21T00:50:00.391Z,1021.99
2019-03-21T00:51:00.382Z,1022.02
2019-03-21T00:52:00.371Z,1021.97
2019-03-21T00:53:00.356Z,1022.04
2019-03-21T00:54:00.361Z,1022.03
2019-03-21T00:55:00.348Z,1022.03
2019-03-21T00:56:00.324Z,1022.04
2019-03-21T00:57:00.311Z,1022.01
2019-03-21T00:58:00.302Z,1022.04
2019-03-21T00:59:00.305Z,1022.02
2019-03-21T01:00:00.383Z,1022.00
2019-03-21T01:01:00.262Z,1021.97
2019-03-21T01:02:00.250Z,1021.96
2019-03-21T01:03:00.241Z,1021.92
2019-03-21T01:04:00.247Z,1021.93
2019-03-21T01:05:00.374Z,1021.93
2019-03-21T01:06:00.201Z,1021.93
2019-03-21T01:07:00.191Z,1021.93
2019-03-21T01:08:00.180Z,1021.90
2019-03-21T01:09:00.184Z,1021.90
2019-03-21T01:10:00.303Z,1021.92
2019-03-21T01:11:00.143Z,1021.87
2019-03-21T01:12:00.133Z,1021.92
2019-03-21T01:13:00.118Z,1021.92
2019-03-21T01:14:00.125Z,1021.93
2019-03-21T01:15:00.306Z,1021.91
2019-03-21T01:16:00.111Z,1021.91
2019-03-21T01:17:00.070Z,1021.85
2019-03-21T01:18:00.058Z,1021.84
2019-03-21T01:19:00.068Z,1021.85
2019-03-21T01:20:00.034Z,1021.79
2019-03-21T01:21:00.022Z,1021.80
2019-03-21T01:22:00.018Z,1021.83
2019-03-21T01:23:00.001Z,1021.79
2019-03-21T01:24:00.006Z,1021.80
2019-03-21T01:24:59.975Z,1021.73
2019-03-21T01:25:59.968Z,1021.75
2019-03-21T01:26:59.958Z,1021.86
2019-03-21T01:27:59.939Z,1021.79
2019-03-21T01:28:59.948Z,1021.79
2019-03-21T01:29:59.914Z,1021.72
2019-03-21T01:30:59.905Z,1021.73
2019-03-21T01:31:59.895Z,1021.75
2019-03-21T01:32:59.882Z,1021.70
2019-03-21T01:33:59.887Z,1021.69
2019-03-21T01:34:59.855Z,1021.77
2019-03-21T01:35:59.844Z,1021.68
2019-03-21T01:36:59.832Z,1021.81
2019-03-21T01:37:59.822Z,1021.78
2019-03-21T01:38:59.827Z,1021.75
2019-03-21T01:39:59.794Z,1021.83
2019-03-21T01:40:59.784Z,1021.80
2019-03-21T01:41:59.770Z,1021.80
2019-03-21T01:42:59.760Z,1021.74
2019-03-21T01:43:59.769Z,1021.78
2019-03-21T01:44:59.735Z,1021.76
2019-03-21T01:45:59.725Z,1021.69
2019-03-21T01:46:59.714Z,1021.73
2019-03-21T01:47:59.710Z,1021.71
2019-03-21T01:48:59.713Z,1021.72
2019-03-21T01:49:59.677Z,1021.72
2019-03-21T01:50:59.669Z,1021.63
2019-03-21T01:51:59.653Z,1021.66
2019-03-21T01:52:59.642Z,1021.67
2019-03-21T01:53:59.651Z,1021.72
2019-03-21T01:54:59.620Z,1021.69
2019-03-21T01:55:59.608Z,1021.72
2019-03-21T01:56:59.596Z,1021.67
2019-03-21T01:57:59.594Z,1021.72
2019-03-21T01:58:59.597Z,1021.67
2019-03-21T01:59:59.557Z,1021.70
2019-03-21T02:00:59.554Z,1021.60
2019-03-21T02:01:59.538Z,1021.67
2019-03-21T02:02:59.526Z,1021.68
2019-03-21T02:03:59.511Z,1021.70
2019-03-21T02:04:59.518Z,1021.74
2019-03-21T02:05:59.486Z,1021.67
2019-03-21T02:06:59.476Z,1021.67
2019-03-21T02:07:59.463Z,1021.64
2019-03-21T02:08:59.450Z,1021.62
2019-03-21T02:09:59.456Z,1021.65
2019-03-21T02:10:59.426Z,1021.57
2019-03-21T02:11:59.429Z,1021.62
2019-03-21T02:12:59.405Z,1021.58
2019-03-21T02:13:59.389Z,1021.69
2019-03-21T02:14:59.398Z,1021.60
2019-03-21T02:15:59.434Z,1021.59
2019-03-21T02:16:59.355Z,1021.53
2019-03-21T02:17:59.342Z,1021.58
2019-03-21T02:18:59.329Z,1021.54
2019-03-21T02:19:59.339Z,1021.58
2019-03-21T02:20:59.307Z,1021.59
2019-03-21T02:21:59.295Z,1021.54
2019-03-21T02:22:59.287Z,1021.56
2019-03-21T02:23:59.273Z,1021.52
2019-03-21T02:24:59.277Z,1021.55
2019-03-21T02:25:59.253Z,1021.47
2019-03-21T02:26:59.237Z,1021.54
2019-03-21T02:27:59.223Z,1021.50
2019-03-21T02:28:59.213Z,1021.50
2019-03-21T02:29:59.218Z,1021.42
2019-03-21T02:30:59.188Z,1021.41
2019-03-21T02:31:59.184Z,1021.43
2019-03-21T02:32:59.165Z,1021.47
2019-03-21T02:33:59.159Z,1021.49
2019-03-21T02:34:59.163Z,1021.51
2019-03-21T02:35:59.138Z,1021.48
2019-03-21T02:36:59.122Z,1021.46
2019-03-21T02:37:59.106Z,1021.43
2019-03-21T02:38:59.094Z,1021.42
2019-03-21T02:40:00.289Z,1021.39
2019-03-21T02:40:59.070Z,1021.41
2019-03-21T02:41:59.090Z,1021.39
2019-03-21T02:42:59.062Z,1021.41
2019-03-21T02:43:59.039Z,1021.39
2019-03-21T02:45:08.251Z,1021.46
2019-03-21T02:46:00.012Z,1021.45
2019-03-21T02:46:59.022Z,1021.40
2019-03-21T02:47:58.987Z,1021.41
2019-03-21T02:48:58.978Z,1021.46
2019-03-21T02:49:58.966Z,1021.50
2019-03-21T02:50:58.954Z,1021.49
2019-03-21T02:51:58.960Z,1021.47
2019-03-21T02:52:58.936Z,1021.54
2019-03-21T02:53:58.919Z,1021.58
2019-03-21T02:54:58.909Z,1021.57
2019-03-21T02:55:58.896Z,1021.48
2019-03-21T02:56:58.909Z,1021.55
2019-03-21T02:57:58.873Z,1021.55
2019-03-21T02:58:58.862Z,1021.54
2019-03-21T02:59:58.854Z,1021.54
2019-03-21T03:00:58.843Z,1021.51
2019-03-21T03:01:58.828Z,1021.53
2019-03-21T03:02:58.840Z,1021.50
2019-03-21T03:03:58.826Z,1021.53
2019-03-21T03:04:58.799Z,1021.55
2019-03-21T03:05:58.789Z,1021.47
2019-03-21T03:06:59.766Z,1021.46
2019-03-21T03:07:58.876Z,1021.50
2019-03-21T03:08:58.749Z,1021.48
2019-03-21T03:09:58.736Z,1021.52
2019-03-21T03:10:58.728Z,1021.52
2019-03-21T03:11:58.721Z,1021.50
2019-03-21T03:12:58.722Z,1021.54
2019-03-21T03:13:58.691Z,1021.55
2019-03-21T03:14:58.679Z,1021.58
2019-03-21T03:15:58.671Z,1021.54
2019-03-21T03:16:58.659Z,1021.58
2019-03-21T03:17:58.675Z,1021.57
2019-03-21T03:18:58.639Z,1021.54
2019-03-21T03:19:58.649Z,1021.53
2019-03-21T03:20:58.616Z,1021.51
2019-03-21T03:21:58.603Z,1021.51
2019-03-21T03:22:58.590Z,1021.57
2019-03-21T03:23:58.598Z,1021.54
2019-03-21T03:24:58.565Z,1021.55
2019-03-21T03:25:58.555Z,1021.50
2019-03-21T03:26:58.544Z,1021.53
2019-03-21T03:27:58.534Z,1021.55
2019-03-21T03:28:58.544Z,1021.60
2019-03-21T03:29:58.541Z,1021.58
2019-03-21T03:30:58.519Z,1021.56
2019-03-21T03:31:58.499Z,1021.63
2019-03-21T03:32:58.488Z,1021.65
2019-03-21T03:33:58.521Z,1021.59
2019-03-21T03:34:58.468Z,1021.58
2019-03-21T03:35:58.444Z,1021.58
2019-03-21T03:36:58.432Z,1021.58
2019-03-21T03:37:58.419Z,1021.60
2019-03-21T03:38:58.427Z,1021.59
2019-03-21T03:39:58.396Z,1021.61
2019-03-21T03:40:58.388Z,1021.58
2019-03-21T03:41:58.375Z,1021.64
2019-03-21T03:42:58.361Z,1021.62
2019-03-21T03:43:58.371Z,1021.60
2019-03-21T03:44:58.347Z,1021.64
2019-03-21T03:45:58.335Z,1021.65
2019-03-21T03:46:58.322Z,1021.57
2019-03-21T03:47:58.388Z,1021.63
2019-03-21T03:48:58.324Z,1021.61
2019-03-21T03:49:58.286Z,1021.57
2019-03-21T03:50:58.278Z,1021.59
2019-03-21T03:51:58.260Z,1021.66
2019-03-21T03:52:58.250Z,1021.66
2019-03-21T03:53:58.239Z,1021.66
2019-03-21T03:54:58.245Z,1021.66
2019-03-21T03:55:58.219Z,1021.71
2019-03-21T03:56:58.202Z,1021.64
2019-03-21T03:57:58.194Z,1021.71
2019-03-21T03:58:58.182Z,1021.63
2019-03-21T03:59:58.189Z,1021.70
2019-03-21T04:00:58.169Z,1021.66
2019-03-21T04:01:58.147Z,1021.70
2019-03-21T04:02:58.138Z,1021.78
2019-03-21T04:03:58.125Z,1021.69
2019-03-21T04:04:58.133Z,1021.75
2019-03-21T04:05:58.107Z,1021.72
2019-03-21T04:06:58.099Z,1021.74
2019-03-21T04:07:58.079Z,1021.80
2019-03-21T04:08:58.102Z,1021.73
2019-03-21T04:09:58.101Z,1021.70
2019-03-21T04:10:58.076Z,1021.73
2019-03-21T04:11:58.033Z,1021.72
2019-03-21T04:12:58.022Z,1021.70
2019-03-21T04:13:58.012Z,1021.68
2019-03-21T04:14:58.000Z,1021.69
2019-03-21T04:15:58.012Z,1021.63
2019-03-21T04:16:57.983Z,1021.72
2019-03-21T04:17:58.000Z,1021.73
2019-03-21T04:18:57.957Z,1021.75
2019-03-21T04:19:57.958Z,1021.69
2019-03-21T04:20:57.957Z,1021.67
2019-03-21T04:21:57.942Z,1021.69
2019-03-21T04:22:57.913Z,1021.69
2019-03-21T04:23:59.770Z,1021.67
2019-03-21T04:24:57.887Z,1021.67
2019-03-21T04:25:57.894Z,1021.68
2019-03-21T04:26:57.859Z,1021.71
2019-03-21T04:27:57.861Z,1021.69
2019-03-21T04:28:57.836Z,1021.68
2019-03-21T04:29:57.822Z,1021.62
2019-03-21T04:30:57.828Z,1021.64
2019-03-21T04:31:57.798Z,1021.61
2019-03-21T04:32:57.785Z,1021.67
2019-03-21T04:33:57.780Z,1021.65
2019-03-21T04:34:57.767Z,1021.59
2019-03-21T04:35:57.777Z,1021.68
2019-03-21T04:36:57.740Z,1021.63
2019-03-21T04:37:57.731Z,1021.73
2019-03-21T04:38:57.719Z,1021.69
2019-03-21T04:39:57.719Z,1021.75
2019-03-21T04:40:57.705Z,1021.63
2019-03-21T04:41:57.702Z,1021.74
2019-03-21T04:42:57.672Z,1021.69
2019-03-21T04:43:57.663Z,1021.69
2019-03-21T04:44:57.653Z,1021.71
2019-03-21T04:46:03.235Z,1021.73
2019-03-21T04:46:58.646Z,1021.66
2019-03-21T04:47:57.619Z,1021.78
2019-03-21T04:48:57.604Z,1021.76
2019-03-21T04:49:57.594Z,1021.72
2019-03-21T04:50:57.587Z,1021.73
2019-03-21T04:51:57.591Z,1021.79
2019-03-21T04:52:57.563Z,1021.85
2019-03-21T04:53:57.549Z,1021.74
2019-03-21T04:54:57.538Z,1021.71
2019-03-21T04:55:57.526Z,1021.69
2019-03-21T04:56:57.533Z,1021.74
2019-03-21T04:57:57.506Z,1021.76
2019-03-21T04:58:57.493Z,1021.70
2019-03-21T04:59:57.481Z,1021.69
2019-03-21T05:00:57.471Z,1021.74
2019-03-21T05:01:57.478Z,1021.70
2019-03-21T05:02:57.447Z,1021.74
2019-03-21T05:03:57.438Z,1021.74
2019-03-21T05:04:57.424Z,1021.67
2019-03-21T05:05:57.414Z,1021.68
2019-03-21T05:06:57.424Z,1021.72
2019-03-21T05:07:57.396Z,1021.67
2019-03-21T05:08:57.379Z,1021.66
2019-03-21T05:09:57.369Z,1021.68
2019-03-21T05:10:57.356Z,1021.64
2019-03-21T05:11:57.344Z,1021.70
2019-03-21T05:12:57.354Z,1021.70
2019-03-21T05:13:57.324Z,1021.68
2019-03-21T05:14:57.311Z,1021.72
2019-03-21T05:15:57.300Z,1021.77
2019-03-21T05:16:57.290Z,1021.77
2019-03-21T05:17:57.300Z,1021.76
2019-03-21T05:18:57.264Z,1021.75
2019-03-21T05:19:57.254Z,1021.75
2019-03-21T05:20:57.242Z,1021.78
2019-03-21T05:21:57.233Z,1021.76
2019-03-21T05:22:57.239Z,1021.83
2019-03-21T05:23:57.209Z,1021.81
2019-03-21T05:24:57.198Z,1021.82
2019-03-21T05:25:57.188Z,1021.83
2019-03-21T05:26:57.176Z,1021.82
2019-03-21T05:27:57.204Z,1021.85
2019-03-21T05:28:57.152Z,1021.84
2019-03-21T05:29:57.149Z,1021.84
2019-03-21T05:30:57.128Z,1021.74
2019-03-21T05:31:57.123Z,1021.79
2019-03-21T05:32:57.108Z,1021.83
2019-03-21T05:33:57.115Z,1021.83
2019-03-21T05:34:57.084Z,1021.87
2019-03-21T05:35:57.085Z,1021.88
2019-03-21T05:36:57.062Z,1021.88
2019-03-21T05:37:57.053Z,1021.90
2019-03-21T05:38:57.058Z,1021.88
2019-03-21T05:39:57.033Z,1021.91
2019-03-21T05:40:57.017Z,1021.93
2019-03-21T05:41:57.006Z,1021.92
2019-03-21T05:42:56.992Z,1021.93
2019-03-21T05:43:57.002Z,1022.02
2019-03-21T05:44:56.970Z,1021.91
2019-03-21T05:45:56.958Z,1021.83
2019-03-21T05:46:56.947Z,1021.91
2019-03-21T05:47:56.937Z,1021.88
2019-03-21T05:48:56.955Z,1021.94
2019-03-21T05:49:56.912Z,1021.89
2019-03-21T05:50:56.902Z,1021.89
2019-03-21T05:51:56.891Z,1021.91
2019-03-21T05:52:56.880Z,1021.95
2019-03-21T05:53:56.887Z,1021.90
2019-03-21T05:54:56.857Z,1021.89
2019-03-21T05:55:56.844Z,1021.96
2019-03-21T05:56:56.832Z,1021.98
2019-03-21T05:57:56.822Z,1021.95
2019-03-21T05:58:56.836Z,1021.90
2019-03-21T05:59:56.800Z,1021.95
2019-03-21T06:00:56.790Z,1021.93
2019-03-21T06:01:56.807Z,1021.96
2019-03-21T06:02:56.764Z,1021.96
2019-03-21T06:03:56.758Z,1021.93
2019-03-21T06:04:56.763Z,1022.00
2019-03-21T06:05:56.733Z,1021.95
2019-03-21T06:06:56.721Z,1021.94
2019-03-21T06:07:56.711Z,1021.91
2019-03-21T06:08:56.699Z,1021.91
2019-03-21T06:09:56.706Z,1021.92
2019-03-21T06:10:56.678Z,1021.92
2019-03-21T06:11:56.665Z,1021.99
2019-03-21T06:12:56.653Z,1021.91
2019-03-21T06:13:56.643Z,1021.97
2019-03-21T06:14:56.650Z,1022.02
2019-03-21T06:15:56.619Z,1022.00
2019-03-21T06:16:56.607Z,1022.01
2019-03-21T06:17:56.598Z,1022.03
2019-03-21T06:18:56.586Z,1022.04
2019-03-21T06:19:56.572Z,1021.99
2019-03-21T06:20:56.578Z,1022.14
2019-03-21T06:21:56.551Z,1022.00
2019-03-21T06:22:56.537Z,1022.05
2019-03-21T06:23:56.528Z,1022.08
2019-03-21T06:24:56.516Z,1022.07
2019-03-21T06:25:56.523Z,1022.05
2019-03-21T06:26:56.500Z,1022.08
2019-03-21T06:27:56.479Z,1022.03
2019-03-21T06:28:56.470Z,1022.08
2019-03-21T06:29:56.456Z,1022.10
2019-03-21T06:30:56.464Z,1022.13
2019-03-21T06:31:56.432Z,1022.12
2019-03-21T06:32:56.426Z,1022.12
2019-03-21T06:33:56.413Z,1022.14
2019-03-21T06:34:56.400Z,1022.11
2019-03-21T06:35:56.432Z,1022.09
2019-03-21T06:36:56.376Z,1022.11
2019-03-21T06:37:56.363Z,1022.07
2019-03-21T06:38:56.350Z,1022.14
2019-03-21T06:39:56.339Z,1022.18
2019-03-21T06:40:56.329Z,1022.17
2019-03-21T06:41:56.335Z,1022.18
2019-03-21T06:42:56.304Z,1022.22
2019-03-21T06:43:56.378Z,1022.16
2019-03-21T06:44:56.283Z,1022.14
2019-03-21T06:45:56.268Z,1022.23
2019-03-21T06:46:56.276Z,1022.19
2019-03-21T06:47:56.246Z,1022.14
2019-03-21T06:48:56.230Z,1022.27
2019-03-21T06:49:56.221Z,1022.32
2019-03-21T06:50:56.212Z,1022.21
2019-03-21T06:51:56.236Z,1022.34
2019-03-21T06:52:56.185Z,1022.33
2019-03-21T06:53:56.175Z,1022.37
2019-03-21T06:54:56.163Z,1022.44
2019-03-21T06:55:56.151Z,1022.41
2019-03-21T06:56:56.140Z,1022.43
2019-03-21T06:57:56.146Z,1022.45
2019-03-21T06:58:56.122Z,1022.42
2019-03-21T06:59:56.108Z,1022.38
2019-03-21T07:00:56.093Z,1022.40
2019-03-21T07:01:56.078Z,1022.50
2019-03-21T07:02:56.088Z,1022.47
2019-03-21T07:04:06.655Z,1022.44
2019-03-21T07:04:57.044Z,1022.42
2019-03-21T07:05:56.032Z,1022.49
2019-03-21T07:07:07.255Z,1022.41
2019-03-21T07:07:57.030Z,1022.42
2019-03-21T07:08:55.998Z,1022.43
2019-03-21T07:09:55.985Z,1022.43
2019-03-21T07:10:58.275Z,1022.44
2019-03-21T07:11:55.968Z,1022.39
2019-03-21T07:12:55.970Z,1022.38
2019-03-21T07:13:55.940Z,1022.43
2019-03-21T07:14:55.931Z,1022.38
2019-03-21T07:15:55.916Z,1022.35
2019-03-21T07:17:00.474Z,1022.36
2019-03-21T07:17:55.910Z,1022.33
2019-03-21T07:18:55.882Z,1022.43
2019-03-21T07:19:55.874Z,1022.40
2019-03-21T07:20:55.858Z,1022.39
2019-03-21T07:21:55.853Z,1022.45
2019-03-21T07:22:55.852Z,1022.41
2019-03-21T07:23:55.823Z,1022.39
2019-03-21T07:24:55.809Z,1022.51
2019-03-21T07:25:55.797Z,1022.48
2019-03-21T07:26:55.786Z,1022.44
2019-03-21T07:27:55.795Z,1022.48
2019-03-21T07:28:55.765Z,1022.47
2019-03-21T07:29:55.750Z,1022.46
2019-03-21T07:30:55.745Z,1022.47
2019-03-21T07:31:55.774Z,1022.47
2019-03-21T07:32:55.716Z,1022.48
2019-03-21T07:33:55.725Z,1022.42
2019-03-21T07:34:55.693Z,1022.48
2019-03-21T07:35:55.681Z,1022.44
2019-03-21T07:36:55.674Z,1022.44
2019-03-21T07:37:55.657Z,1022.45
2019-03-21T07:38:55.663Z,1022.55
2019-03-21T07:39:55.635Z,1022.46
2019-03-21T07:40:55.622Z,1022.51
2019-03-21T07:41:55.608Z,1022.49
2019-03-21T07:42:55.605Z,1022.52
2019-03-21T07:43:55.616Z,1022.57
2019-03-21T07:44:55.574Z,1022.52
2019-03-21T07:45:55.564Z,1022.49
2019-03-21T07:46:55.551Z,1022.48
2019-03-21T07:47:55.540Z,1022.49
2019-03-21T07:48:55.550Z,1022.51
2019-03-21T07:49:55.517Z,1022.50
2019-03-21T07:50:55.504Z,1022.49
2019-03-21T07:51:55.497Z,1022.43
2019-03-21T07:52:55.484Z,1022.53
2019-03-21T07:53:55.470Z,1022.46
2019-03-21T07:54:55.480Z,1022.58
2019-03-21T07:55:55.449Z,1022.51
2019-03-21T07:56:55.437Z,1022.49
2019-03-21T07:57:55.423Z,1022.47
2019-03-21T07:58:57.710Z,1022.37
2019-03-21T07:59:55.420Z,1022.37
2019-03-21T08:00:55.391Z,1022.40
2019-03-21T08:01:55.388Z,1022.42
2019-03-21T08:02:55.369Z,1022.48
2019-03-21T08:03:55.357Z,1022.53
2019-03-21T08:04:55.376Z,1022.55
2019-03-21T08:05:55.335Z,1022.52
2019-03-21T08:06:55.324Z,1022.54
2019-03-21T08:07:55.310Z,1022.59
2019-03-21T08:08:55.299Z,1022.46
2019-03-21T08:09:55.311Z,1022.51
2019-03-21T08:10:55.277Z,1022.57
2019-03-21T08:11:55.264Z,1022.47
2019-03-21T08:12:55.252Z,1022.47
2019-03-21T08:13:55.241Z,1022.53
2019-03-21T08:14:55.229Z,1022.55
2019-03-21T08:15:55.237Z,1022.46
2019-03-21T08:16:55.204Z,1022.47
2019-03-21T08:17:55.194Z,1022.51
2019-03-21T08:18:55.180Z,1022.52
2019-03-21T08:19:55.171Z,1022.49
2019-03-21T08:20:58.470Z,1022.43
2019-03-21T08:21:55.147Z,1022.48
2019-03-21T08:22:55.136Z,1022.46
2019-03-21T08:23:55.123Z,1022.52
2019-03-21T08:24:55.112Z,1022.51
2019-03-21T08:25:55.118Z,1022.52
2019-03-21T08:26:55.087Z,1022.52
2019-03-21T08:27:55.080Z,1022.55
2019-03-21T08:28:55.068Z,1022.51
2019-03-21T08:29:55.058Z,1022.58
2019-03-21T08:30:55.066Z,1022.53
2019-03-21T08:31:55.031Z,1022.48
2019-03-21T08:33:03.180Z,1022.46
2019-03-21T08:33:55.009Z,1022.49
2019-03-21T08:34:54.994Z,1022.48
2019-03-21T08:35:54.982Z,1022.45
2019-03-21T08:36:54.988Z,1022.50
2019-03-21T08:37:54.960Z,1022.53
2019-03-21T08:38:54.948Z,1022.55
2019-03-21T08:39:54.938Z,1022.57
2019-03-21T08:40:54.928Z,1022.63
2019-03-21T08:41:54.938Z,1022.64
2019-03-21T08:42:54.902Z,1022.56
2019-03-21T08:43:54.890Z,1022.59
2019-03-21T08:44:54.883Z,1022.62
2019-03-21T08:45:54.870Z,1022.66
2019-03-21T08:46:54.877Z,1022.61
2019-03-21T08:47:54.846Z,1022.58
2019-03-21T08:48:54.838Z,1022.60
2019-03-21T08:49:54.823Z,1022.65
2019-03-21T08:50:54.810Z,1022.67
2019-03-21T08:51:54.822Z,1022.63
2019-03-21T08:52:54.787Z,1022.64
2019-03-21T08:53:54.777Z,1022.62
2019-03-21T08:54:54.763Z,1022.64
2019-03-21T08:55:54.753Z,1022.66
2019-03-21T08:56:54.743Z,1022.56
2019-03-21T08:57:54.749Z,1022.59
2019-03-21T08:58:54.720Z,1022.67
2019-03-21T08:59:54.709Z,1022.73
2019-03-21T09:00:54.696Z,1022.73
2019-03-21T09:01:54.687Z,1022.68
2019-03-21T09:02:54.694Z,1022.62
2019-03-21T09:03:54.662Z,1022.72
2019-03-21T09:04:54.697Z,1022.68
2019-03-21T09:05:54.640Z,1022.74
2019-03-21T09:06:54.627Z,1022.69
2019-03-21T09:07:54.633Z,1022.65
2019-03-21T09:08:54.603Z,1022.69
2019-03-21T09:09:54.592Z,1022.66
2019-03-21T09:10:54.600Z,1022.71
2019-03-21T09:11:54.571Z,1022.69
2019-03-21T09:12:54.584Z,1022.65
2019-03-21T09:13:54.550Z,1022.59
2019-03-21T09:14:54.535Z,1022.71
2019-03-21T09:15:54.526Z,1022.68
2019-03-21T09:16:54.513Z,1022.66
2019-03-21T09:17:55.547Z,1022.60
2019-03-21T09:18:54.511Z,1022.62
2019-03-21T09:19:54.481Z,1022.59
2019-03-21T09:20:54.472Z,1022.64
2019-03-21T09:21:54.459Z,1022.58
2019-03-21T09:22:54.449Z,1022.58
2019-03-21T09:23:54.454Z,1022.62
2019-03-21T09:24:54.469Z,1022.56
2019-03-21T09:25:54.416Z,1022.58
2019-03-21T09:26:54.404Z,1022.58
2019-03-21T09:28:02.464Z,1022.60
2019-03-21T09:28:55.401Z,1022.51
2019-03-21T09:29:54.372Z,1022.55
2019-03-21T09:30:56.458Z,1022.59
2019-03-21T09:31:54.350Z,1022.55
2019-03-21T09:32:54.338Z,1022.59
2019-03-21T09:33:54.351Z,1022.60
2019-03-21T09:34:54.318Z,1022.61
2019-03-21T09:35:54.312Z,1022.59
2019-03-21T09:36:54.293Z,1022.55
2019-03-21T09:37:54.285Z,1022.56
2019-03-21T09:38:54.271Z,1022.57
2019-03-21T09:39:54.283Z,1022.58
2019-03-21T09:40:54.259Z,1022.67
2019-03-21T09:41:54.243Z,1022.62
2019-03-21T09:42:54.228Z,1022.63
2019-03-21T09:43:54.220Z,1022.58
2019-03-21T09:44:54.229Z,1022.56
2019-03-21T09:45:54.196Z,1022.64
2019-03-21T09:46:54.189Z,1022.60
2019-03-21T09:47:54.184Z,1022.66
2019-03-21T09:48:54.161Z,1022.63
2019-03-21T09:49:54.172Z,1022.64
2019-03-21T09:50:54.144Z,1022.61
2019-03-21T09:51:54.133Z,1022.64
2019-03-21T09:52:54.115Z,1022.60
2019-03-21T09:53:54.107Z,1022.57
2019-03-21T09:54:54.135Z,1022.54
2019-03-21T09:55:54.086Z,1022.54
2019-03-21T09:56:54.074Z,1022.59
2019-03-21T09:57:54.065Z,1022.56
2019-03-21T09:58:54.052Z,1022.58
2019-03-21T09:59:54.045Z,1022.56
2019-03-21T10:00:54.051Z,1022.56
2019-03-21T10:01:54.513Z,1022.57
2019-03-21T10:02:54.008Z,1022.60
2019-03-21T10:03:53.996Z,1022.61
2019-03-21T10:04:53.985Z,1022.56
2019-03-21T10:05:53.993Z,1022.56
2019-03-21T10:06:53.966Z,1022.56
2019-03-21T10:07:53.956Z,1022.52
2019-03-21T10:08:53.942Z,1022.49
2019-03-21T10:09:53.934Z,1022.50
2019-03-21T10:10:53.944Z,1022.46
2019-03-21T10:11:53.911Z,1022.45
2019-03-21T10:12:55.584Z,1022.40
2019-03-21T10:13:53.891Z,1022.46
2019-03-21T10:14:53.879Z,1022.49
2019-03-21T10:15:53.885Z,1022.44
2019-03-21T10:16:53.856Z,1022.49
2019-03-21T10:17:53.845Z,1022.46
2019-03-21T10:18:53.834Z,1022.50
2019-03-21T10:19:53.828Z,1022.45
2019-03-21T10:20:53.810Z,1022.43
2019-03-21T10:21:53.820Z,1022.48
2019-03-21T10:22:53.794Z,1022.43
2019-03-21T10:23:53.780Z,1022.48
2019-03-21T10:24:53.768Z,1022.44
2019-03-21T10:25:53.758Z,1022.43
2019-03-21T10:26:53.767Z,1022.38
2019-03-21T10:27:53.737Z,1022.43
2019-03-21T10:28:53.722Z,1022.50
2019-03-21T10:29:53.716Z,1022.44
2019-03-21T10:30:53.702Z,1022.48
2019-03-21T10:31:53.770Z,1022.44
2019-03-21T10:32:53.687Z,1022.46
2019-03-21T10:33:53.669Z,1022.46
2019-03-21T10:34:53.659Z,1022.49
2019-03-21T10:35:53.652Z,1022.38
2019-03-21T10:36:53.657Z,1022.47
2019-03-21T10:37:53.626Z,1022.43
2019-03-21T10:38:53.616Z,1022.34
2019-03-21T10:39:53.606Z,1022.36
2019-03-21T10:40:53.595Z,1022.37
2019-03-21T10:41:53.606Z,1022.38
2019-03-21T10:42:53.576Z,1022.40
2019-03-21T10:43:53.559Z,1022.40
2019-03-21T10:44:53.549Z,1022.40
2019-03-21T10:45:53.540Z,1022.44
2019-03-21T10:46:53.549Z,1022.36
2019-03-21T10:47:53.520Z,1022.38
2019-03-21T10:48:53.506Z,1022.35
2019-03-21T10:49:53.496Z,1022.42
2019-03-21T10:50:53.485Z,1022.36
2019-03-21T10:51:55.165Z,1022.37
2019-03-21T10:52:53.465Z,1022.37
2019-03-21T10:53:53.450Z,1022.35
2019-03-21T10:54:53.439Z,1022.35
2019-03-21T10:55:53.430Z,1022.30
2019-03-21T10:56:53.441Z,1022.40
2019-03-21T10:57:53.415Z,1022.41
2019-03-21T10:58:53.397Z,1022.38
2019-03-21T10:59:53.385Z,1022.32
2019-03-21T11:00:53.373Z,1022.38
2019-03-21T11:01:53.362Z,1022.35
2019-03-21T11:02:53.370Z,1022.31
2019-03-21T11:03:53.343Z,1022.37
2019-03-21T11:04:53.330Z,1022.38
2019-03-21T11:05:53.317Z,1022.33
2019-03-21T11:06:53.315Z,1022.32
2019-03-21T11:07:53.323Z,1022.33
2019-03-21T11:08:53.284Z,1022.30
2019-03-21T11:09:53.276Z,1022.35
2019-03-21T11:10:53.264Z,1022.32
2019-03-21T11:11:53.250Z,1022.31
2019-03-21T11:12:53.263Z,1022.32
2019-03-21T11:13:53.233Z,1022.32
2019-03-21T11:14:53.221Z,1022.31
2019-03-21T11:15:53.209Z,1022.30
2019-03-21T11:16:53.200Z,1022.28
2019-03-21T11:17:53.206Z,1022.26
2019-03-21T11:18:53.176Z,1022.31
2019-03-21T11:19:53.167Z,1022.29
2019-03-21T11:20:53.158Z,1022.26
2019-03-21T11:21:53.145Z,1022.32
2019-03-21T11:22:55.682Z,1022.19
2019-03-21T11:23:53.123Z,1022.24
2019-03-21T11:24:53.111Z,1022.24
2019-03-21T11:25:53.103Z,1022.24
2019-03-21T11:26:53.090Z,1022.22
2019-03-21T11:27:53.079Z,1022.18
2019-03-21T11:28:53.087Z,1022.26
2019-03-21T11:29:53.058Z,1022.20
2019-03-21T11:30:53.046Z,1022.23
2019-03-21T11:31:53.037Z,1022.26
2019-03-21T11:32:53.023Z,1022.20
2019-03-21T11:33:53.031Z,1022.16
2019-03-21T11:34:53.004Z,1022.17
2019-03-21T11:35:52.990Z,1022.18
2019-03-21T11:36:52.980Z,1022.10
2019-03-21T11:37:52.970Z,1022.13
2019-03-21T11:38:52.978Z,1022.09
2019-03-21T11:39:52.947Z,1022.10
2019-03-21T11:40:52.937Z,1022.05
2019-03-21T11:41:52.950Z,1022.09
2019-03-21T11:42:52.928Z,1022.07
2019-03-21T11:43:52.937Z,1021.96
2019-03-21T11:44:52.903Z,1021.93
2019-03-21T11:45:55.221Z,1021.93
2019-03-21T11:46:52.875Z,1022.04
2019-03-21T11:47:52.872Z,1021.97
2019-03-21T11:48:52.852Z,1021.99
2019-03-21T11:49:52.863Z,1021.97
2019-03-21T11:50:52.837Z,1021.93
2019-03-21T11:51:52.820Z,1021.95
2019-03-21T11:52:52.804Z,1021.88
2019-03-21T11:53:52.796Z,1021.89
2019-03-21T11:54:52.809Z,1021.84
2019-03-21T11:55:52.770Z,1021.90
2019-03-21T11:56:52.761Z,1021.83
2019-03-21T11:57:52.748Z,1021.87
2019-03-21T11:58:52.737Z,1021.81
2019-03-21T11:59:52.744Z,1021.80
2019-03-21T12:00:52.725Z,1021.79
2019-03-21T12:01:52.704Z,1021.74
2019-03-21T12:02:52.694Z,1021.83
2019-03-21T12:03:52.682Z,1021.84
2019-03-21T12:04:52.691Z,1021.84